createdAt,value
2022-09-11T00:00:48.727Z,99.43
2022-09-11T00:01:51.767Z,96.08
2022-09-11T00:02:54.439Z,97.52
2022-09-11T00:03:57.273Z,98.69
2022-09-11T00:04:59.919Z,95.86
2022-09-11T00:06:02.590Z,94.24
2022-09-11T00:07:05.375Z,94.20
2022-09-11T00:08:07.921Z,94.46
2022-09-11T00:09:11.223Z,93.28
2022-09-11T00:10:13.882Z,94.75
2022-09-11T00:11:16.594Z,95.27
2022-09-11T00:12:19.122Z,92.94
2022-09-11T00:13:21.800Z,92.47
2022-09-11T00:14:24.351Z,93.10
2022-09-11T00:15:27.019Z,96.27
2022-09-11T00:16:29.802Z,96.32
2022-09-11T00:17:32.460Z,94.61
2022-09-11T00:18:35.139Z,97.27
2022-09-11T00:19:37.802Z,100.00
2022-09-11T00:20:40.604Z,96.57
2022-09-11T00:21:43.383Z,96.05
2022-09-11T00:22:45.934Z,94.12
2022-09-11T00:23:48.493Z,94.81
2022-09-11T00:24:51.475Z,96.18
2022-09-11T00:25:54.134Z,95.10
2022-09-11T00:26:56.818Z,94.67
2022-09-11T00:27:59.573Z,94.51
2022-09-11T00:29:02.264Z,93.80
2022-09-11T00:30:05.122Z,96.25
2022-09-11T00:31:07.861Z,94.28
2022-09-11T00:32:10.465Z,94.12
2022-09-11T00:33:13.255Z,92.45
2022-09-11T00:34:15.801Z,93.38
2022-09-11T00:35:18.485Z,94.17
2022-09-11T00:36:21.166Z,94.11
2022-09-11T00:37:23.703Z,93.95
2022-09-11T00:38:26.376Z,92.74
2022-09-11T00:39:29.048Z,91.61
2022-09-11T00:40:31.924Z,92.63
2022-09-11T00:41:34.481Z,91.84
2022-09-11T00:42:37.153Z,92.58
2022-09-11T00:43:39.732Z,92.12
2022-09-11T00:44:42.599Z,92.15
2022-09-11T00:45:45.339Z,92.77
2022-09-11T00:46:47.940Z,91.92
2022-09-11T00:47:50.814Z,92.84
2022-09-11T00:48:53.385Z,92.72
2022-09-11T00:49:56.050Z,93.42
2022-09-11T00:50:59.023Z,93.37
2022-09-11T00:52:01.805Z,92.91
2022-09-11T00:53:04.485Z,93.77
2022-09-11T00:54:07.036Z,93.39
2022-09-11T00:55:09.915Z,92.57
2022-09-11T00:56:13.090Z,94.61
2022-09-11T00:57:15.664Z,94.81
2022-09-11T00:58:18.236Z,94.38
2022-09-11T00:59:20.903Z,93.77
2022-09-11T01:00:23.579Z,93.61
2022-09-11T01:01:27.259Z,93.67
2022-09-11T01:02:29.834Z,88.76
2022-09-11T01:03:32.507Z,88.76
2022-09-11T01:04:35.068Z,90.34
2022-09-11T01:05:37.836Z,92.71
2022-09-11T01:06:40.518Z,95.16
2022-09-11T01:07:43.090Z,93.81
2022-09-11T01:08:45.755Z,91.94
2022-09-11T01:09:48.425Z,93.50
2022-09-11T01:10:51.091Z,94.53
2022-09-11T01:11:53.647Z,95.53
2022-09-11T01:12:56.427Z,93.34
2022-09-11T01:13:59.206Z,92.52
2022-09-11T01:15:02.993Z,92.63
2022-09-11T01:16:05.637Z,92.28
2022-09-11T01:17:08.551Z,93.56
2022-09-11T01:18:11.660Z,91.54
2022-09-11T01:19:14.291Z,90.11
2022-09-11T01:20:16.851Z,89.55
2022-09-11T01:21:19.848Z,90.08
2022-09-11T01:22:22.405Z,93.38
2022-09-11T01:23:25.277Z,92.79
2022-09-11T01:24:28.451Z,93.03
2022-09-11T01:25:31.122Z,90.07
2022-09-11T01:26:33.946Z,89.50
2022-09-11T01:27:37.181Z,89.72
2022-09-11T01:28:39.953Z,87.76
2022-09-11T01:29:42.933Z,88.07
2022-09-11T01:30:45.604Z,87.75
2022-09-11T01:31:48.502Z,87.27
2022-09-11T01:32:51.766Z,87.58
2022-09-11T01:33:54.650Z,88.73
2022-09-11T01:34:57.205Z,90.40
2022-09-11T01:35:59.773Z,88.10
2022-09-11T01:37:02.443Z,88.31
2022-09-11T01:38:05.619Z,88.04
2022-09-11T01:39:08.732Z,87.42
2022-09-11T01:40:11.304Z,86.59
2022-09-11T01:41:14.049Z,86.46
2022-09-11T01:42:16.716Z,88.08
2022-09-11T01:43:19.794Z,86.97
2022-09-11T01:44:22.462Z,87.29
2022-09-11T01:45:25.186Z,86.58
2022-09-11T01:46:28.002Z,86.08
2022-09-11T01:47:30.982Z,86.64
2022-09-11T01:48:34.054Z,91.43
2022-09-11T01:49:36.731Z,88.01
2022-09-11T01:50:39.507Z,85.46
2022-09-11T01:51:42.075Z,86.32
2022-09-11T01:52:45.253Z,86.15
2022-09-11T01:53:50.169Z,87.64
2022-09-11T01:54:52.024Z,87.08
2022-09-11T01:55:54.599Z,86.29
2022-09-11T01:56:57.260Z,85.66
2022-09-11T01:58:00.030Z,85.43
2022-09-11T01:59:03.216Z,86.48
2022-09-11T02:00:05.880Z,86.82
2022-09-11T02:01:08.755Z,84.92
2022-09-11T02:02:11.624Z,85.38
2022-09-11T02:03:14.619Z,86.37
2022-09-11T02:04:17.284Z,84.10
2022-09-11T02:05:19.955Z,85.42
2022-09-11T02:06:22.536Z,85.25
2022-09-11T02:07:25.300Z,84.23
2022-09-11T02:08:27.859Z,83.25
2022-09-11T02:09:30.642Z,82.53
2022-09-11T02:10:33.318Z,84.01
2022-09-11T02:11:35.968Z,83.59
2022-09-11T02:12:38.654Z,83.81
2022-09-11T02:13:41.442Z,82.54
2022-09-11T02:14:44.605Z,81.88
2022-09-11T02:15:47.382Z,81.36
2022-09-11T02:16:50.456Z,82.12
2022-09-11T02:17:53.349Z,83.68
2022-09-11T02:18:56.102Z,82.99
2022-09-11T02:19:58.668Z,83.81
2022-09-11T02:21:01.670Z,83.73
2022-09-11T02:22:04.315Z,84.35
2022-09-11T02:23:07.306Z,82.86
2022-09-11T02:24:10.063Z,82.72
2022-09-11T02:25:13.347Z,82.75
2022-09-11T02:26:16.114Z,84.00
2022-09-11T02:27:18.892Z,82.46
2022-09-11T02:28:21.872Z,81.75
2022-09-11T02:29:24.649Z,81.46
2022-09-11T02:30:27.211Z,82.59
2022-09-11T02:31:30.018Z,82.38
2022-09-11T02:32:32.547Z,82.52
2022-09-11T02:33:35.114Z,81.95
2022-09-11T02:34:37.790Z,81.80
2022-09-11T02:35:40.849Z,81.31
2022-09-11T02:36:43.926Z,80.80
2022-09-11T02:37:46.904Z,81.49
2022-09-11T02:38:49.889Z,82.57
2022-09-11T02:39:53.124Z,83.27
2022-09-11T02:40:56.250Z,83.43
2022-09-11T02:41:59.426Z,81.87
2022-09-11T02:43:03.048Z,81.54
2022-09-11T02:44:05.894Z,81.05
2022-09-11T02:45:09.065Z,81.11
2022-09-11T02:46:12.047Z,80.84
2022-09-11T02:47:15.230Z,81.00
2022-09-11T02:48:18.306Z,81.06
2022-09-11T02:49:21.181Z,81.49
2022-09-11T02:50:24.059Z,81.74
2022-09-11T02:51:27.447Z,80.93
2022-09-11T02:52:30.314Z,81.87
2022-09-11T02:53:33.555Z,80.93
2022-09-11T02:54:36.476Z,80.54
2022-09-11T02:55:39.668Z,80.76
2022-09-11T02:56:42.636Z,81.55
2022-09-11T02:57:46.028Z,81.46
2022-09-11T02:58:49.023Z,80.76
2022-09-11T02:59:52.080Z,81.00
2022-09-11T03:00:55.192Z,81.04
2022-09-11T03:01:58.183Z,81.41
2022-09-11T03:03:01.113Z,81.87
2022-09-11T03:04:04.210Z,82.11
2022-09-11T03:05:07.178Z,81.73
2022-09-11T03:06:10.249Z,82.08
2022-09-11T03:07:13.331Z,79.99
2022-09-11T03:08:16.405Z,79.30
2022-09-11T03:09:19.895Z,80.47
2022-09-11T03:10:23.287Z,80.57
2022-09-11T03:11:26.356Z,81.08
2022-09-11T03:12:29.345Z,80.95
2022-09-11T03:13:32.316Z,81.52
2022-09-11T03:14:35.503Z,79.32
2022-09-11T03:15:38.061Z,82.71
2022-09-11T03:16:41.068Z,81.55
2022-09-11T03:17:44.126Z,80.51
2022-09-11T03:18:47.095Z,81.94
2022-09-11T03:19:50.081Z,82.03
2022-09-11T03:20:53.153Z,81.81
2022-09-11T03:21:56.239Z,80.40
2022-09-11T03:22:59.231Z,81.56
2022-09-11T03:24:02.290Z,82.37
2022-09-11T03:25:05.368Z,79.70
2022-09-11T03:26:08.355Z,81.96
2022-09-11T03:27:11.233Z,80.81
2022-09-11T03:28:14.508Z,80.43
2022-09-11T03:29:18.302Z,79.92
2022-09-11T03:30:21.172Z,79.31
2022-09-11T03:31:24.389Z,79.05
2022-09-11T03:32:27.433Z,80.11
2022-09-11T03:33:30.633Z,79.54
2022-09-11T03:34:33.611Z,80.03
2022-09-11T03:35:36.581Z,79.59
2022-09-11T03:36:39.652Z,78.54
2022-09-11T03:37:42.737Z,78.87
2022-09-11T03:38:46.013Z,78.13
2022-09-11T03:39:49.154Z,78.59
2022-09-11T03:40:52.392Z,77.65
2022-09-11T03:41:55.567Z,78.70
2022-09-11T03:42:59.050Z,78.18
2022-09-11T03:44:02.548Z,77.94
2022-09-11T03:45:05.624Z,78.39
2022-09-11T03:46:08.858Z,77.37
2022-09-11T03:47:11.785Z,77.91
2022-09-11T03:48:14.867Z,77.66
2022-09-11T03:49:18.657Z,78.45
2022-09-11T03:50:21.654Z,79.37
2022-09-11T03:51:24.509Z,78.25
2022-09-11T03:52:27.387Z,77.90
2022-09-11T03:53:30.576Z,78.95
2022-09-11T03:54:33.743Z,77.95
2022-09-11T03:55:36.929Z,77.65
2022-09-11T03:56:40.210Z,77.82
2022-09-11T03:57:43.717Z,79.02
2022-09-11T03:58:46.894Z,78.40
2022-09-11T03:59:50.163Z,78.23
2022-09-11T04:00:53.071Z,77.50
2022-09-11T04:01:56.395Z,77.79
2022-09-11T04:02:59.509Z,78.61
2022-09-11T04:04:02.691Z,79.11
2022-09-11T04:05:06.181Z,80.16
2022-09-11T04:06:09.168Z,78.39
2022-09-11T04:07:12.645Z,78.02
2022-09-11T04:08:15.736Z,78.43
2022-09-11T04:09:18.706Z,78.16
2022-09-11T04:10:21.692Z,77.75
2022-09-11T04:11:24.864Z,78.10
2022-09-11T04:12:27.842Z,78.75
2022-09-11T04:13:30.913Z,79.49
2022-09-11T04:14:33.995Z,78.48
2022-09-11T04:15:37.188Z,78.33
2022-09-11T04:16:41.353Z,77.61
2022-09-11T04:17:44.568Z,78.32
2022-09-11T04:18:47.849Z,78.11
2022-09-11T04:19:51.449Z,78.29
2022-09-11T04:20:54.629Z,78.89
2022-09-11T04:21:58.035Z,78.75
2022-09-11T04:23:01.185Z,77.60
2022-09-11T04:24:04.385Z,78.57
2022-09-11T04:25:07.349Z,78.35
2022-09-11T04:26:10.936Z,78.89
2022-09-11T04:27:14.225Z,77.89
2022-09-11T04:28:17.305Z,78.60
2022-09-11T04:29:20.385Z,79.89
2022-09-11T04:30:23.363Z,78.91
2022-09-11T04:31:26.774Z,79.61
2022-09-11T04:32:29.620Z,79.16
2022-09-11T04:33:32.515Z,81.22
2022-09-11T04:34:35.590Z,78.81
2022-09-11T04:35:38.762Z,79.38
2022-09-11T04:36:43.369Z,80.04
2022-09-11T04:37:46.554Z,79.30
2022-09-11T04:38:49.838Z,79.17
2022-09-11T04:39:52.837Z,80.57
2022-09-11T04:40:56.099Z,80.19
2022-09-11T04:41:59.290Z,78.91
2022-09-11T04:43:02.778Z,79.95
2022-09-11T04:44:06.367Z,80.20
2022-09-11T04:45:17.867Z,79.81
2022-09-11T04:46:20.852Z,79.51
2022-09-11T04:47:23.821Z,80.19
2022-09-11T04:48:26.708Z,78.91
2022-09-11T04:49:29.641Z,78.75
2022-09-11T04:50:33.048Z,79.36
2022-09-11T04:51:36.109Z,80.47
2022-09-11T04:52:38.779Z,79.39
2022-09-11T04:53:41.785Z,79.96
2022-09-11T04:54:44.843Z,80.84
2022-09-11T04:55:47.815Z,81.30
2022-09-11T04:56:50.898Z,80.80
2022-09-11T04:57:54.071Z,81.46
2022-09-11T04:58:57.161Z,81.23
2022-09-11T05:00:00.148Z,81.59
2022-09-11T05:01:03.415Z,79.55
2022-09-11T05:02:06.533Z,79.76
2022-09-11T05:03:09.999Z,79.15
2022-09-11T05:04:13.069Z,78.99
2022-09-11T05:05:15.941Z,80.03
2022-09-11T05:06:18.715Z,82.60
2022-09-11T05:07:21.688Z,78.83
2022-09-11T05:08:24.565Z,79.67
2022-09-11T05:09:27.257Z,81.82
2022-09-11T05:10:29.907Z,82.09
2022-09-11T05:11:32.776Z,81.15
2022-09-11T05:12:35.748Z,81.06
2022-09-11T05:13:38.734Z,80.84
2022-09-11T05:14:41.707Z,87.03
2022-09-11T05:15:44.585Z,90.13
2022-09-11T05:16:47.757Z,99.27
2022-09-11T05:17:50.647Z,100.00
2022-09-11T05:18:53.623Z,100.00
2022-09-11T05:19:56.387Z,100.00
2022-09-11T05:20:59.165Z,100.00
2022-09-11T05:22:02.145Z,100.00
2022-09-11T05:23:04.916Z,100.00
2022-09-11T05:24:07.805Z,99.70
2022-09-11T05:25:10.662Z,100.00
2022-09-11T05:26:13.530Z,100.00
2022-09-11T05:27:16.304Z,100.00
2022-09-11T05:28:19.281Z,100.00
2022-09-11T05:29:22.257Z,100.00
2022-09-11T05:30:25.144Z,100.00
2022-09-11T05:31:28.268Z,100.00
2022-09-11T05:32:31.099Z,100.00
2022-09-11T05:33:34.019Z,100.00
2022-09-11T05:34:37.044Z,100.00
2022-09-11T05:35:40.221Z,100.00
2022-09-11T05:36:43.205Z,100.00
2022-09-11T05:37:46.383Z,100.00
2022-09-11T05:38:49.577Z,100.00
2022-09-11T05:39:52.483Z,100.00
2022-09-11T05:40:55.418Z,100.00
2022-09-11T05:41:58.401Z,100.00
2022-09-11T05:43:01.474Z,100.00
2022-09-11T05:44:04.353Z,100.00
2022-09-11T05:45:07.337Z,100.00
2022-09-11T05:46:10.337Z,100.00
2022-09-11T05:47:13.174Z,100.00
2022-09-11T05:48:16.151Z,100.00
2022-09-11T05:49:19.050Z,100.00
2022-09-11T05:50:21.902Z,100.00
2022-09-11T05:51:24.982Z,100.00
2022-09-11T05:52:27.974Z,100.00
2022-09-11T05:53:31.039Z,100.00
2022-09-11T05:54:33.916Z,100.00
2022-09-11T05:55:36.784Z,100.00
2022-09-11T05:56:39.879Z,100.00
2022-09-11T05:57:42.957Z,100.00
2022-09-11T05:58:45.924Z,100.00
2022-09-11T05:59:49.005Z,100.00
2022-09-11T06:00:52.059Z,100.00
2022-09-11T06:01:54.933Z,100.00
2022-09-11T06:02:57.624Z,100.00
2022-09-11T06:04:00.501Z,100.00
2022-09-11T06:05:03.577Z,100.00
2022-09-11T06:06:06.451Z,100.00
2022-09-11T06:07:09.328Z,100.00
2022-09-11T06:08:12.104Z,100.00
2022-09-11T06:09:15.088Z,100.00
2022-09-11T06:10:18.051Z,100.00
2022-09-11T06:11:21.061Z,100.00
2022-09-11T06:12:24.019Z,100.00
2022-09-11T06:13:27.099Z,100.00
2022-09-11T06:14:29.970Z,100.00
2022-09-11T06:15:46.220Z,100.00
2022-09-11T06:16:37.318Z,100.00
2022-09-11T06:17:40.272Z,100.00
2022-09-11T06:18:43.722Z,100.00
2022-09-11T06:19:47.001Z,100.00
2022-09-11T06:20:50.076Z,100.00
2022-09-11T06:21:53.258Z,100.00
2022-09-11T06:22:56.886Z,100.00
2022-09-11T06:24:00.033Z,100.00
2022-09-11T06:25:03.021Z,100.00
2022-09-11T06:26:05.983Z,100.00
2022-09-11T06:27:08.860Z,100.00
2022-09-11T06:28:12.041Z,100.00
2022-09-11T06:29:15.238Z,100.00
2022-09-11T06:30:18.407Z,100.00
2022-09-11T06:31:21.396Z,100.00
2022-09-11T06:32:24.278Z,100.00
2022-09-11T06:33:27.745Z,100.00
2022-09-11T06:34:30.621Z,100.00
2022-09-11T06:35:33.603Z,100.00
2022-09-11T06:36:36.382Z,100.00
2022-09-11T06:37:39.151Z,100.00
2022-09-11T06:38:42.234Z,100.00
2022-09-11T06:39:45.559Z,100.00
2022-09-11T06:40:48.694Z,100.00
2022-09-11T06:41:51.773Z,100.00
2022-09-11T06:42:54.745Z,100.00
2022-09-11T06:43:57.617Z,100.00
2022-09-11T06:45:00.490Z,100.00
2022-09-11T06:46:03.369Z,100.00
2022-09-11T06:47:06.145Z,100.00
2022-09-11T06:48:09.320Z,100.00
2022-09-11T06:49:12.205Z,100.00
2022-09-11T06:50:15.183Z,100.00
2022-09-11T06:51:18.154Z,100.00
2022-09-11T06:52:21.139Z,100.00
2022-09-11T06:53:24.210Z,100.00
2022-09-11T06:54:27.085Z,100.00
2022-09-11T06:55:29.753Z,100.00
2022-09-11T06:56:32.638Z,100.00
2022-09-11T06:57:39.921Z,100.00
2022-09-11T06:58:40.016Z,100.00
2022-09-11T06:59:42.796Z,100.00
2022-09-11T07:00:45.475Z,100.00
2022-09-11T07:01:48.425Z,100.00
2022-09-11T07:02:51.415Z,100.00
2022-09-11T07:03:54.081Z,100.00
2022-09-11T07:04:56.852Z,100.00
2022-09-11T07:05:59.629Z,100.00
2022-09-11T07:07:02.600Z,100.00
2022-09-11T07:08:05.284Z,100.00
2022-09-11T07:09:08.047Z,100.00
2022-09-11T07:10:10.823Z,100.00
2022-09-11T07:11:13.606Z,100.00
2022-09-11T07:12:16.566Z,100.00
2022-09-11T07:13:19.572Z,100.00
2022-09-11T07:14:22.728Z,100.00
2022-09-11T07:15:25.399Z,100.00
2022-09-11T07:16:28.093Z,100.00
2022-09-11T07:17:31.142Z,100.00
2022-09-11T07:18:33.924Z,100.00
2022-09-11T07:19:36.795Z,100.00
2022-09-11T07:20:39.563Z,100.00
2022-09-11T07:21:42.343Z,100.00
2022-09-11T07:22:45.418Z,100.00
2022-09-11T07:23:48.296Z,100.00
2022-09-11T07:24:51.996Z,100.00
2022-09-11T07:25:55.164Z,100.00
2022-09-11T07:26:58.248Z,100.00
2022-09-11T07:28:01.444Z,100.00
2022-09-11T07:29:04.715Z,100.00
2022-09-11T07:30:07.896Z,100.00
2022-09-11T07:31:11.166Z,100.00
2022-09-11T07:32:14.150Z,100.00
2022-09-11T07:33:17.241Z,100.00
2022-09-11T07:34:20.103Z,100.00
2022-09-11T07:35:23.499Z,100.00
2022-09-11T07:36:26.367Z,100.00
2022-09-11T07:37:29.246Z,100.00
2022-09-11T07:38:32.015Z,100.00
2022-09-11T07:39:34.799Z,100.00
2022-09-11T07:40:37.670Z,100.00
2022-09-11T07:41:40.437Z,100.00
2022-09-11T07:42:43.411Z,100.00
2022-09-11T07:43:46.409Z,100.00
2022-09-11T07:44:49.568Z,100.00
2022-09-11T07:45:52.789Z,100.00
2022-09-11T07:46:55.831Z,100.00
2022-09-11T07:47:59.223Z,100.00
2022-09-11T07:49:02.604Z,100.00
2022-09-11T07:50:05.683Z,100.00
2022-09-11T07:51:08.865Z,100.00
2022-09-11T07:52:16.636Z,100.00
2022-09-11T07:53:16.353Z,100.00
2022-09-11T07:54:19.452Z,100.00
2022-09-11T07:55:22.435Z,100.00
2022-09-11T07:56:25.288Z,100.00
2022-09-11T07:57:28.271Z,100.00
2022-09-11T07:58:30.941Z,100.00
2022-09-11T07:59:33.923Z,100.00
2022-09-11T08:00:37.253Z,100.00
2022-09-11T08:01:39.982Z,100.00
2022-09-11T08:02:43.200Z,100.00
2022-09-11T08:03:46.343Z,100.00
2022-09-11T08:04:49.721Z,100.00
2022-09-11T08:05:52.395Z,100.00
2022-09-11T08:06:55.466Z,100.00
2022-09-11T08:07:58.550Z,100.00
2022-09-11T08:09:01.622Z,100.00
2022-09-11T08:10:26.104Z,100.00
2022-09-11T08:11:08.916Z,100.00
2022-09-11T08:12:11.899Z,100.00
2022-09-11T08:13:15.066Z,100.00
2022-09-11T08:14:17.948Z,100.00
2022-09-11T08:15:21.029Z,100.00
2022-09-11T08:16:23.827Z,100.00
2022-09-11T08:17:26.987Z,100.00
2022-09-11T08:18:29.759Z,100.00
2022-09-11T08:19:32.940Z,100.00
2022-09-11T08:20:35.801Z,100.00
2022-09-11T08:21:38.700Z,100.00
2022-09-11T08:22:41.550Z,100.00
2022-09-11T08:23:44.810Z,100.00
2022-09-11T08:24:47.609Z,100.00
2022-09-11T08:25:50.483Z,100.00
2022-09-11T08:26:53.261Z,100.00
2022-09-11T08:27:56.040Z,100.00
2022-09-11T08:28:59.213Z,100.00
2022-09-11T08:30:02.089Z,100.00
2022-09-11T08:31:05.424Z,100.00
2022-09-11T08:32:08.266Z,100.00
2022-09-11T08:33:11.224Z,100.00
2022-09-11T08:34:14.306Z,100.00
2022-09-11T08:35:17.289Z,100.00
2022-09-11T08:36:20.054Z,100.00
2022-09-11T08:37:22.722Z,100.00
2022-09-11T08:38:25.492Z,100.00
2022-09-11T08:39:28.270Z,100.00
2022-09-11T08:40:31.141Z,100.00
2022-09-11T08:41:34.120Z,100.00
2022-09-11T08:42:36.889Z,100.00
2022-09-11T08:43:39.655Z,100.00
2022-09-11T08:44:42.338Z,100.00
2022-09-11T08:45:45.039Z,100.00
2022-09-11T08:46:47.775Z,100.00
2022-09-11T08:47:50.871Z,100.00
2022-09-11T08:48:53.730Z,100.00
2022-09-11T08:49:56.515Z,100.00
2022-09-11T08:50:59.382Z,100.00
2022-09-11T08:52:02.155Z,100.00
2022-09-11T08:53:06.200Z,100.00
2022-09-11T08:54:09.238Z,100.00
2022-09-11T08:55:12.009Z,100.00
2022-09-11T08:56:14.769Z,100.00
2022-09-11T08:57:17.555Z,100.00
2022-09-11T08:58:20.419Z,100.00
2022-09-11T08:59:23.307Z,100.00
2022-09-11T09:00:26.070Z,100.00
2022-09-11T09:01:28.983Z,100.00
2022-09-11T09:02:31.757Z,100.00
2022-09-11T09:03:34.543Z,100.00
2022-09-11T09:04:37.263Z,100.00
2022-09-11T09:05:40.239Z,100.00
2022-09-11T09:06:42.925Z,100.00
2022-09-11T09:07:46.003Z,100.00
2022-09-11T09:08:48.659Z,100.00
2022-09-11T09:09:51.328Z,100.00
2022-09-11T09:10:54.102Z,100.00
2022-09-11T09:11:57.072Z,100.00
2022-09-11T09:12:59.946Z,100.00
2022-09-11T09:14:02.827Z,100.00
2022-09-11T09:15:05.604Z,100.00
2022-09-11T09:16:08.314Z,100.00
2022-09-11T09:17:10.960Z,100.00
2022-09-11T09:18:13.707Z,100.00
2022-09-11T09:19:16.481Z,100.00
2022-09-11T09:20:19.144Z,100.00
2022-09-11T09:21:22.020Z,100.00
2022-09-11T09:22:24.790Z,100.00
2022-09-11T09:23:27.668Z,100.00
2022-09-11T09:24:30.445Z,100.00
2022-09-11T09:25:33.310Z,100.00
2022-09-11T09:26:38.479Z,100.00
2022-09-11T09:27:40.601Z,100.00
2022-09-11T09:28:43.474Z,100.00
2022-09-11T09:29:46.250Z,100.00
2022-09-11T09:30:49.172Z,100.00
2022-09-11T09:31:51.887Z,100.00
2022-09-11T09:32:54.767Z,100.00
2022-09-11T09:33:57.539Z,100.00
2022-09-11T09:35:00.310Z,100.00
2022-09-11T09:36:03.181Z,100.00
2022-09-11T09:37:05.960Z,100.00
2022-09-11T09:38:08.836Z,100.00
2022-09-11T09:39:11.804Z,100.00
2022-09-11T09:40:14.679Z,100.00
2022-09-11T09:41:17.452Z,100.00
2022-09-11T09:42:20.228Z,100.00
2022-09-11T09:43:23.211Z,100.00
2022-09-11T09:44:25.979Z,100.00
2022-09-11T09:45:28.642Z,100.00
2022-09-11T09:46:31.325Z,100.00
2022-09-11T09:47:34.110Z,100.00
2022-09-11T09:48:36.965Z,100.00
2022-09-11T09:49:39.838Z,100.00
2022-09-11T09:50:42.610Z,100.00
2022-09-11T09:51:45.592Z,100.00
2022-09-11T09:52:48.263Z,100.00
2022-09-11T09:53:51.029Z,100.00
2022-09-11T09:54:53.816Z,100.00
2022-09-11T09:55:56.781Z,100.00
2022-09-11T09:56:59.559Z,100.00
2022-09-11T09:58:02.335Z,100.00
2022-09-11T09:59:05.100Z,100.00
2022-09-11T10:00:07.762Z,100.00
2022-09-11T10:01:10.590Z,100.00
2022-09-11T10:02:13.369Z,100.00
2022-09-11T10:03:16.081Z,100.00
2022-09-11T10:04:18.854Z,100.00
2022-09-11T10:05:21.525Z,100.00
2022-09-11T10:06:24.501Z,100.00
2022-09-11T10:07:27.374Z,100.00
2022-09-11T10:08:30.184Z,100.00
2022-09-11T10:09:33.238Z,100.00
2022-09-11T10:10:36.098Z,100.00
2022-09-11T10:11:38.977Z,100.00
2022-09-11T10:12:41.750Z,100.00
2022-09-11T10:13:44.622Z,100.00
2022-09-11T10:14:51.775Z,100.00
2022-09-11T10:15:51.856Z,100.00
2022-09-11T10:16:54.681Z,100.00
2022-09-11T10:17:57.559Z,100.00
2022-09-11T10:19:00.442Z,100.00
2022-09-11T10:20:03.200Z,100.00
2022-09-11T10:21:08.532Z,100.00
2022-09-11T10:22:10.488Z,100.00
2022-09-11T10:23:13.259Z,100.00
2022-09-11T10:24:16.151Z,100.00
2022-09-11T10:25:18.904Z,100.00
2022-09-11T10:26:21.779Z,100.00
2022-09-11T10:27:28.446Z,100.00
2022-09-11T10:28:28.973Z,100.00
2022-09-11T10:29:31.832Z,100.00
2022-09-11T10:30:34.941Z,100.00
2022-09-11T10:31:37.799Z,100.00
2022-09-11T10:32:40.470Z,100.00
2022-09-11T10:33:43.237Z,100.00
2022-09-11T10:34:46.010Z,100.00
2022-09-11T10:35:48.780Z,100.00
2022-09-11T10:36:51.448Z,100.00
2022-09-11T10:37:54.241Z,100.00
2022-09-11T10:38:56.988Z,100.00
2022-09-11T10:39:59.700Z,100.00
2022-09-11T10:41:02.333Z,100.00
2022-09-11T10:42:05.428Z,100.00
2022-09-11T10:43:08.394Z,100.00
2022-09-11T10:44:11.260Z,100.00
2022-09-11T10:45:14.033Z,100.00
2022-09-11T10:46:16.807Z,100.00
2022-09-11T10:47:19.680Z,100.00
2022-09-11T10:48:22.668Z,100.00
2022-09-11T10:49:25.539Z,100.00
2022-09-11T10:50:28.299Z,100.00
2022-09-11T10:51:31.489Z,100.00
2022-09-11T10:52:34.156Z,100.00
2022-09-11T10:53:37.144Z,100.00
2022-09-11T10:54:39.808Z,100.00
2022-09-11T10:55:42.713Z,100.00
2022-09-11T10:56:45.449Z,100.00
2022-09-11T10:57:48.635Z,100.00
2022-09-11T10:58:54.828Z,100.00
2022-09-11T10:59:56.326Z,100.00
2022-09-11T11:00:59.335Z,100.00
2022-09-11T11:02:02.611Z,100.00
2022-09-11T11:03:05.674Z,100.00
2022-09-11T11:04:12.181Z,100.00
2022-09-11T11:05:13.170Z,100.00
2022-09-11T11:06:16.239Z,100.00
2022-09-11T11:07:19.213Z,100.00
2022-09-11T11:08:21.981Z,100.00
2022-09-11T11:09:28.946Z,100.00
2022-09-11T11:10:29.166Z,100.00
2022-09-11T11:11:32.174Z,100.00
2022-09-11T11:12:34.920Z,100.00
2022-09-11T11:13:37.804Z,100.00
2022-09-11T11:14:40.669Z,100.00
2022-09-11T11:15:43.486Z,100.00
2022-09-11T11:16:46.208Z,100.00
2022-09-11T11:17:49.293Z,100.00
2022-09-11T11:18:52.581Z,100.00
2022-09-11T11:19:55.449Z,100.00
2022-09-11T11:20:58.426Z,100.00
2022-09-11T11:22:01.299Z,100.00
2022-09-11T11:23:04.792Z,100.00
2022-09-11T11:24:07.868Z,100.00
2022-09-11T11:25:10.743Z,100.00
2022-09-11T11:26:13.718Z,100.00
2022-09-11T11:27:16.800Z,100.00
2022-09-11T11:28:19.887Z,100.00
2022-09-11T11:29:22.960Z,100.00
2022-09-11T11:30:25.832Z,100.00
2022-09-11T11:31:28.939Z,100.00
2022-09-11T11:32:31.707Z,100.00
2022-09-11T11:33:34.560Z,100.00
2022-09-11T11:34:37.329Z,100.00
2022-09-11T11:35:40.043Z,100.00
2022-09-11T11:36:42.877Z,100.00
2022-09-11T11:37:45.760Z,100.00
2022-09-11T11:38:48.638Z,100.00
2022-09-11T11:39:52.462Z,100.00
2022-09-11T11:40:55.093Z,100.00
2022-09-11T11:41:57.872Z,100.00
2022-09-11T11:43:00.534Z,100.00
2022-09-11T11:44:03.409Z,100.00
2022-09-11T11:45:06.188Z,100.00
2022-09-11T11:46:08.891Z,100.00
2022-09-11T11:47:11.621Z,100.00
2022-09-11T11:48:14.396Z,100.00
2022-09-11T11:49:17.165Z,100.00
2022-09-11T11:50:20.160Z,100.00
2022-09-11T11:52:25.684Z,100.00
2022-09-11T11:55:34.824Z,100.00
2022-09-11T11:57:40.059Z,100.00
2022-09-11T12:40:35.458Z,100.00
2022-09-11T12:41:38.334Z,100.00
2022-09-11T12:42:41.109Z,100.00
2022-09-11T12:43:43.776Z,100.00
2022-09-11T12:44:46.755Z,100.00
2022-09-11T12:45:49.875Z,100.00
2022-09-11T12:46:52.509Z,100.00
2022-09-11T12:47:54.963Z,100.00
2022-09-11T12:49:20.354Z,100.00
2022-09-11T12:50:02.599Z,100.00
2022-09-11T12:51:05.745Z,100.00
2022-09-11T12:52:08.823Z,100.00
2022-09-11T12:53:11.916Z,100.00
2022-09-11T12:54:14.978Z,100.00
2022-09-11T12:55:18.100Z,100.00
2022-09-11T12:56:21.144Z,100.00
2022-09-11T12:57:24.120Z,100.00
2022-09-11T12:58:27.000Z,100.00
2022-09-11T12:59:30.384Z,100.00
2022-09-11T13:00:33.048Z,100.00
2022-09-11T13:01:36.066Z,100.00
2022-09-11T13:02:39.005Z,100.00
2022-09-11T13:03:41.782Z,100.00
2022-09-11T13:04:44.441Z,100.00
2022-09-11T13:05:47.214Z,100.00
2022-09-11T13:06:50.191Z,100.00
2022-09-11T13:07:53.375Z,100.00
2022-09-11T13:08:56.455Z,100.00
2022-09-11T13:09:59.538Z,100.00
2022-09-11T13:11:02.511Z,100.00
2022-09-11T13:12:05.487Z,100.00
2022-09-11T13:13:08.461Z,100.00
2022-09-11T13:14:11.445Z,100.00
2022-09-11T13:15:14.320Z,100.00
2022-09-11T13:16:17.549Z,100.00
2022-09-11T13:17:20.479Z,100.00
2022-09-11T13:18:23.365Z,100.00
2022-09-11T13:19:26.635Z,100.00
2022-09-11T13:20:29.426Z,100.00
2022-09-11T13:21:32.484Z,100.00
2022-09-11T13:22:35.160Z,100.00
2022-09-11T13:23:38.333Z,100.00
2022-09-11T13:24:41.211Z,100.00
2022-09-11T13:25:44.618Z,100.00
2022-09-11T13:26:47.269Z,100.00
2022-09-11T13:27:50.242Z,100.00
2022-09-11T13:28:53.322Z,100.00
2022-09-11T13:29:56.322Z,100.00
2022-09-11T13:30:59.285Z,100.00
2022-09-11T13:32:01.954Z,100.00
2022-09-11T13:33:04.821Z,100.00
2022-09-11T13:34:07.698Z,100.00
2022-09-11T13:35:10.370Z,100.00
2022-09-11T13:36:13.040Z,100.00
2022-09-11T13:37:15.715Z,100.00
2022-09-11T13:38:19.028Z,100.00
2022-09-11T13:39:21.971Z,100.00
2022-09-11T13:40:24.745Z,100.00
2022-09-11T13:41:27.407Z,100.00
2022-09-11T13:42:30.288Z,100.00
2022-09-11T13:43:33.412Z,100.00
2022-09-11T13:44:36.135Z,100.00
2022-09-11T13:45:39.260Z,100.00
2022-09-11T13:46:41.983Z,100.00
2022-09-11T13:47:44.764Z,100.00
2022-09-11T13:48:47.428Z,100.00
2022-09-11T13:49:50.406Z,100.00
2022-09-11T13:50:53.277Z,100.00
2022-09-11T13:51:56.259Z,100.00
2022-09-11T13:52:59.435Z,100.00
2022-09-11T13:54:02.513Z,100.00
2022-09-11T13:55:05.492Z,100.00
2022-09-11T13:56:08.273Z,100.00
2022-09-11T13:57:11.249Z,100.00
2022-09-11T13:58:14.222Z,100.00
2022-09-11T13:59:17.196Z,100.00
2022-09-11T14:00:20.071Z,100.00
2022-09-11T14:01:23.315Z,100.00